Golden Valley, Minnesota
Current Conditions -  °F | °C
As of 7:53 PM on Thursday 20 Nov 2014 (Local Time) from KMIC Reporting Station
Clear Clear  
Wind Chill:   Ceiling: Unl
Heat Index: 11°   Visibility: 10mi
Dew Point:   Wind: 5mph
Humidity: 64%   Direction: 240°WSW
Pressure: 30.22"   Gusts: NA
Location:  44.99°N, 93.38°W
Report Text: KMIC 210153Z 24004KT 10SM CLR M12/M17 A3022 RMK AO2 SLP252 T11171172
Loading
Personal Weather Stations






























Interactive Weather Map New forecast layout! Learn more

10-Day Weather Forecast

Advertisements
Track Severe Weather on mobile